createdAt,value
2022-10-22T00:26:34.312Z,12.88
2022-10-22T00:56:34.317Z,13.06
2022-10-22T01:26:34.317Z,12.94
2022-10-22T01:56:34.321Z,13
2022-10-22T02:26:34.336Z,12.75
2022-10-22T02:56:34.341Z,12.88
2022-10-22T03:26:34.350Z,12.81
2022-10-22T03:56:34.349Z,12.63
2022-10-22T04:26:34.368Z,12.75
2022-10-22T04:56:34.369Z,12.56
2022-10-22T05:26:34.371Z,12.44
2022-10-22T05:56:34.373Z,11.94
2022-10-22T06:26:34.373Z,11.94
2022-10-22T06:56:34.394Z,12.38
2022-10-22T07:26:34.378Z,12.38
2022-10-22T07:56:34.383Z,12.38
2022-10-22T08:26:34.390Z,13.44
2022-10-22T08:56:34.387Z,13.94
2022-10-22T09:26:34.392Z,14.69
2022-10-22T09:56:34.421Z,15.13
2022-10-22T10:26:34.404Z,15.88
2022-10-22T10:56:36.871Z,16.13
2022-10-22T11:26:34.416Z,17.13
2022-10-22T11:56:34.435Z,17.38
2022-10-22T12:26:34.441Z,16.63
2022-10-22T12:56:34.437Z,16.69
2022-10-22T13:26:34.436Z,17.44
2022-10-22T13:56:34.449Z,18.81
2022-10-22T14:26:34.452Z,18.25
2022-10-22T14:56:34.543Z,18.06
2022-10-22T15:26:34.466Z,18.25
2022-10-22T15:56:34.458Z,17.13
2022-10-22T17:14:12.624Z,15.38
2022-10-22T17:44:12.525Z,14.56
2022-10-22T18:14:12.522Z,13.69
2022-10-22T18:44:12.518Z,12.88
2022-10-22T19:14:12.522Z,12.5
2022-10-22T19:44:12.536Z,12
2022-10-22T20:14:12.538Z,11.69
2022-10-22T20:44:12.552Z,11.38
2022-10-22T21:14:12.553Z,11.31
2022-10-22T21:44:12.568Z,11.06
2022-10-22T22:14:12.557Z,11.25
2022-10-22T22:44:12.565Z,11.13
2022-10-22T23:14:12.561Z,11.13
2022-10-22T23:44:12.569Z,10.94
